sensor_id;sensor_type;location;lat;lon;timestamp;P1;durP1;ratioP1;P2;durP2;ratioP2
39778;SDS011;25454;49.878;8.618;2023-05-10T00:02:33;6.63;;;3.53;;
39778;SDS011;25454;49.878;8.618;2023-05-10T00:07:34;7.87;;;3.20;;
39778;SDS011;25454;49.878;8.618;2023-05-10T00:12:34;7.13;;;3.60;;
39778;SDS011;25454;49.878;8.618;2023-05-10T00:17:35;4.43;;;2.63;;
39778;SDS011;25454;49.878;8.618;2023-05-10T00:22:35;6.30;;;3.70;;
39778;SDS011;25454;49.878;8.618;2023-05-10T00:27:36;8.00;;;3.43;;
39778;SDS011;25454;49.878;8.618;2023-05-10T00:32:36;8.63;;;3.90;;
39778;SDS011;25454;49.878;8.618;2023-05-10T00:37:37;5.43;;;3.23;;
39778;SDS011;25454;49.878;8.618;2023-05-10T00:42:37;5.93;;;3.47;;
39778;SDS011;25454;49.878;8.618;2023-05-10T00:47:38;7.53;;;3.87;;
39778;SDS011;25454;49.878;8.618;2023-05-10T00:52:39;8.37;;;4.27;;
39778;SDS011;25454;49.878;8.618;2023-05-10T00:57:40;10.80;;;3.93;;
39778;SDS011;25454;49.878;8.618;2023-05-10T01:02:41;10.50;;;5.20;;
39778;SDS011;25454;49.878;8.618;2023-05-10T01:07:42;10.97;;;5.33;;
39778;SDS011;25454;49.878;8.618;2023-05-10T01:12:43;10.87;;;5.27;;
39778;SDS011;25454;49.878;8.618;2023-05-10T01:17:46;9.60;;;4.67;;
39778;SDS011;25454;49.878;8.618;2023-05-10T01:33:38;10.87;;;5.63;;
39778;SDS011;25454;49.878;8.618;2023-05-10T01:39:04;11.67;;;6.03;;
39778;SDS011;25454;49.878;8.618;2023-05-10T01:44:09;15.00;;;6.50;;
39778;SDS011;25454;49.878;8.618;2023-05-10T01:49:25;12.77;;;6.10;;
39778;SDS011;25454;49.878;8.618;2023-05-10T01:54:28;14.33;;;6.33;;
39778;SDS011;25454;49.878;8.618;2023-05-10T01:59:34;15.17;;;6.60;;
39778;SDS011;25454;49.878;8.618;2023-05-10T02:04:36;13.13;;;6.00;;
39778;SDS011;25454;49.878;8.618;2023-05-10T02:09:39;15.70;;;7.57;;
39778;SDS011;25454;49.878;8.618;2023-05-10T02:14:41;20.57;;;7.80;;
39778;SDS011;25454;49.878;8.618;2023-05-10T02:19:43;19.97;;;8.53;;
39778;SDS011;25454;49.878;8.618;2023-05-10T02:24:45;20.17;;;8.67;;
39778;SDS011;25454;49.878;8.618;2023-05-10T02:29:46;20.33;;;9.37;;
39778;SDS011;25454;49.878;8.618;2023-05-10T02:34:49;24.47;;;9.60;;
39778;SDS011;25454;49.878;8.618;2023-05-10T02:39:52;26.07;;;9.70;;
39778;SDS011;25454;49.878;8.618;2023-05-10T02:44:56;20.37;;;8.70;;
39778;SDS011;25454;49.878;8.618;2023-05-10T02:50:00;19.90;;;8.87;;
39778;SDS011;25454;49.878;8.618;2023-05-10T02:55:02;29.90;;;10.60;;
39778;SDS011;25454;49.878;8.618;2023-05-10T03:00:05;36.23;;;10.93;;
39778;SDS011;25454;49.878;8.618;2023-05-10T03:05:06;31.93;;;11.43;;
39778;SDS011;25454;49.878;8.618;2023-05-10T03:10:07;30.80;;;12.53;;
39778;SDS011;25454;49.878;8.618;2023-05-10T03:20:29;33.57;;;12.23;;
39778;SDS011;25454;49.878;8.618;2023-05-10T03:25:35;32.87;;;12.50;;
39778;SDS011;25454;49.878;8.618;2023-05-10T03:30:36;26.30;;;12.17;;
39778;SDS011;25454;49.878;8.618;2023-05-10T03:35:38;30.63;;;12.37;;
39778;SDS011;25454;49.878;8.618;2023-05-10T03:40:39;30.07;;;12.20;;
39778;SDS011;25454;49.878;8.618;2023-05-10T03:45:40;29.60;;;13.13;;
39778;SDS011;25454;49.878;8.618;2023-05-10T03:50:40;31.10;;;13.27;;
39778;SDS011;25454;49.878;8.618;2023-05-10T03:55:41;38.00;;;14.57;;
39778;SDS011;25454;49.878;8.618;2023-05-10T04:00:41;30.20;;;12.67;;
39778;SDS011;25454;49.878;8.618;2023-05-10T04:05:45;32.10;;;12.77;;
39778;SDS011;25454;49.878;8.618;2023-05-10T04:10:45;22.50;;;11.60;;
39778;SDS011;25454;49.878;8.618;2023-05-10T04:15:46;29.73;;;13.03;;
39778;SDS011;25454;49.878;8.618;2023-05-10T04:20:46;25.13;;;12.47;;
39778;SDS011;25454;49.878;8.618;2023-05-10T04:25:47;21.93;;;10.97;;
39778;SDS011;25454;49.878;8.618;2023-05-10T04:30:48;28.17;;;12.23;;
39778;SDS011;25454;49.878;8.618;2023-05-10T04:35:48;28.27;;;12.40;;
39778;SDS011;25454;49.878;8.618;2023-05-10T04:40:49;30.47;;;12.50;;
39778;SDS011;25454;49.878;8.618;2023-05-10T04:45:50;26.07;;;12.20;;
39778;SDS011;25454;49.878;8.618;2023-05-10T04:50:50;23.33;;;11.30;;
39778;SDS011;25454;49.878;8.618;2023-05-10T04:55:51;22.27;;;12.17;;
39778;SDS011;25454;49.878;8.618;2023-05-10T05:00:51;25.00;;;12.00;;
39778;SDS011;25454;49.878;8.618;2023-05-10T05:05:52;27.77;;;12.73;;
39778;SDS011;25454;49.878;8.618;2023-05-10T05:10:53;22.33;;;11.83;;
39778;SDS011;25454;49.878;8.618;2023-05-10T05:15:54;23.33;;;11.13;;
39778;SDS011;25454;49.878;8.618;2023-05-10T05:20:55;28.87;;;13.50;;
39778;SDS011;25454;49.878;8.618;2023-05-10T05:25:55;16.83;;;10.73;;
39778;SDS011;25454;49.878;8.618;2023-05-10T05:30:56;25.13;;;12.37;;
39778;SDS011;25454;49.878;8.618;2023-05-10T05:35:57;24.37;;;11.13;;
39778;SDS011;25454;49.878;8.618;2023-05-10T05:41:00;22.07;;;10.77;;
39778;SDS011;25454;49.878;8.618;2023-05-10T05:46:00;19.57;;;9.17;;
39778;SDS011;25454;49.878;8.618;2023-05-10T05:51:01;14.20;;;8.43;;
39778;SDS011;25454;49.878;8.618;2023-05-10T05:56:02;15.30;;;9.30;;
39778;SDS011;25454;49.878;8.618;2023-05-10T06:01:03;8.80;;;7.30;;
39778;SDS011;25454;49.878;8.618;2023-05-10T06:06:04;15.17;;;7.23;;
39778;SDS011;25454;49.878;8.618;2023-05-10T06:11:04;13.77;;;6.27;;
39778;SDS011;25454;49.878;8.618;2023-05-10T06:16:05;4.87;;;4.47;;
39778;SDS011;25454;49.878;8.618;2023-05-10T06:21:06;7.57;;;5.03;;
39778;SDS011;25454;49.878;8.618;2023-05-10T06:26:06;9.17;;;4.60;;
39778;SDS011;25454;49.878;8.618;2023-05-10T06:31:07;6.37;;;4.30;;
39778;SDS011;25454;49.878;8.618;2023-05-10T06:36:08;9.07;;;4.37;;
39778;SDS011;25454;49.878;8.618;2023-05-10T06:41:08;5.77;;;4.33;;
39778;SDS011;25454;49.878;8.618;2023-05-10T06:46:09;4.57;;;4.17;;
39778;SDS011;25454;49.878;8.618;2023-05-10T06:51:10;3.97;;;3.63;;
39778;SDS011;25454;49.878;8.618;2023-05-10T06:56:10;7.43;;;4.40;;
39778;SDS011;25454;49.878;8.618;2023-05-10T07:01:11;8.93;;;4.33;;
39778;SDS011;25454;49.878;8.618;2023-05-10T07:06:12;5.50;;;4.07;;
39778;SDS011;25454;49.878;8.618;2023-05-10T07:11:12;7.07;;;4.73;;
39778;SDS011;25454;49.878;8.618;2023-05-10T07:16:13;8.83;;;5.50;;
39778;SDS011;25454;49.878;8.618;2023-05-10T07:21:14;5.90;;;4.67;;
39778;SDS011;25454;49.878;8.618;2023-05-10T07:26:17;6.17;;;4.57;;
39778;SDS011;25454;49.878;8.618;2023-05-10T07:31:18;3.97;;;3.67;;
39778;SDS011;25454;49.878;8.618;2023-05-10T07:36:21;4.83;;;4.37;;
39778;SDS011;25454;49.878;8.618;2023-05-10T07:41:22;7.17;;;3.27;;
39778;SDS011;25454;49.878;8.618;2023-05-10T07:46:23;5.20;;;3.70;;
39778;SDS011;25454;49.878;8.618;2023-05-10T07:51:23;5.57;;;3.13;;
39778;SDS011;25454;49.878;8.618;2023-05-10T07:56:25;5.27;;;3.00;;
39778;SDS011;25454;49.878;8.618;2023-05-10T08:01:33;4.03;;;3.30;;
39778;SDS011;25454;49.878;8.618;2023-05-10T08:06:35;5.57;;;3.60;;
39778;SDS011;25454;49.878;8.618;2023-05-10T08:11:35;3.43;;;3.00;;
39778;SDS011;25454;49.878;8.618;2023-05-10T08:16:36;3.17;;;2.90;;
39778;SDS011;25454;49.878;8.618;2023-05-10T08:21:36;3.17;;;2.97;;
39778;SDS011;25454;49.878;8.618;2023-05-10T08:26:37;4.87;;;2.90;;
39778;SDS011;25454;49.878;8.618;2023-05-10T08:31:38;6.27;;;3.37;;
39778;SDS011;25454;49.878;8.618;2023-05-10T08:36:38;3.67;;;3.37;;
39778;SDS011;25454;49.878;8.618;2023-05-10T08:41:42;4.60;;;3.57;;
39778;SDS011;25454;49.878;8.618;2023-05-10T08:46:45;4.30;;;3.90;;
39778;SDS011;25454;49.878;8.618;2023-05-10T08:51:51;6.73;;;2.83;;
39778;SDS011;25454;49.878;8.618;2023-05-10T08:56:53;4.93;;;3.37;;
39778;SDS011;25454;49.878;8.618;2023-05-10T09:01:55;4.20;;;2.97;;
39778;SDS011;25454;49.878;8.618;2023-05-10T09:06:58;4.47;;;2.93;;
39778;SDS011;25454;49.878;8.618;2023-05-10T09:11:58;3.50;;;2.57;;
39778;SDS011;25454;49.878;8.618;2023-05-10T09:16:59;3.43;;;2.33;;
39778;SDS011;25454;49.878;8.618;2023-05-10T09:22:00;4.13;;;2.33;;
39778;SDS011;25454;49.878;8.618;2023-05-10T09:27:02;2.30;;;1.23;;
39778;SDS011;25454;49.878;8.618;2023-05-10T09:32:05;2.87;;;2.30;;
39778;SDS011;25454;49.878;8.618;2023-05-10T09:37:06;3.00;;;0.80;;
39778;SDS011;25454;49.878;8.618;2023-05-10T09:42:08;3.43;;;1.20;;
39778;SDS011;25454;49.878;8.618;2023-05-10T09:47:09;5.63;;;0.87;;
39778;SDS011;25454;49.878;8.618;2023-05-10T09:52:10;2.10;;;1.00;;
39778;SDS011;25454;49.878;8.618;2023-05-10T09:57:18;4.30;;;1.50;;
39778;SDS011;25454;49.878;8.618;2023-05-10T10:02:21;6.60;;;2.00;;
39778;SDS011;25454;49.878;8.618;2023-05-10T10:07:29;1.93;;;1.33;;
39778;SDS011;25454;49.878;8.618;2023-05-10T10:12:30;2.03;;;0.97;;
39778;SDS011;25454;49.878;8.618;2023-05-10T10:17:30;3.30;;;0.90;;
39778;SDS011;25454;49.878;8.618;2023-05-10T10:22:32;1.87;;;0.70;;
39778;SDS011;25454;49.878;8.618;2023-05-10T10:32:48;2.70;;;0.90;;
39778;SDS011;25454;49.878;8.618;2023-05-10T10:38:12;2.43;;;1.10;;
39778;SDS011;25454;49.878;8.618;2023-05-10T10:43:27;1.30;;;0.83;;
39778;SDS011;25454;49.878;8.618;2023-05-10T10:48:28;2.60;;;0.83;;
39778;SDS011;25454;49.878;8.618;2023-05-10T10:53:28;4.37;;;1.10;;
39778;SDS011;25454;49.878;8.618;2023-05-10T10:58:30;7.60;;;0.80;;
39778;SDS011;25454;49.878;8.618;2023-05-10T11:03:32;1.17;;;0.93;;
39778;SDS011;25454;49.878;8.618;2023-05-10T11:08:33;3.27;;;0.80;;
39778;SDS011;25454;49.878;8.618;2023-05-10T11:13:42;2.50;;;0.57;;
39778;SDS011;25454;49.878;8.618;2023-05-10T11:18:54;2.53;;;0.70;;
39778;SDS011;25454;49.878;8.618;2023-05-10T11:24:09;2.90;;;1.07;;
39778;SDS011;25454;49.878;8.618;2023-05-10T11:29:13;3.90;;;0.87;;
39778;SDS011;25454;49.878;8.618;2023-05-10T11:34:27;0.50;;;0.50;;
39778;SDS011;25454;49.878;8.618;2023-05-10T11:39:30;1.80;;;0.67;;
39778;SDS011;25454;49.878;8.618;2023-05-10T11:44:32;1.53;;;0.70;;
39778;SDS011;25454;49.878;8.618;2023-05-10T11:49:32;2.73;;;0.67;;
39778;SDS011;25454;49.878;8.618;2023-05-10T11:54:33;3.37;;;0.80;;
39778;SDS011;25454;49.878;8.618;2023-05-10T11:59:34;1.67;;;0.70;;
39778;SDS011;25454;49.878;8.618;2023-05-10T12:04:36;2.23;;;0.53;;
39778;SDS011;25454;49.878;8.618;2023-05-10T12:09:44;2.83;;;0.80;;
39778;SDS011;25454;49.878;8.618;2023-05-10T12:14:48;2.53;;;1.00;;
39778;SDS011;25454;49.878;8.618;2023-05-10T12:19:50;1.70;;;0.60;;
39778;SDS011;25454;49.878;8.618;2023-05-10T12:24:53;1.00;;;0.90;;
39778;SDS011;25454;49.878;8.618;2023-05-10T12:29:54;0.60;;;0.60;;
39778;SDS011;25454;49.878;8.618;2023-05-10T12:34:55;2.43;;;0.83;;
39778;SDS011;25454;49.878;8.618;2023-05-10T12:39:57;2.27;;;0.40;;
39778;SDS011;25454;49.878;8.618;2023-05-10T12:44:58;1.27;;;0.60;;
39778;SDS011;25454;49.878;8.618;2023-05-10T12:49:59;2.40;;;0.70;;
39778;SDS011;25454;49.878;8.618;2023-05-10T12:55:01;1.57;;;0.53;;
39778;SDS011;25454;49.878;8.618;2023-05-10T13:00:03;2.47;;;0.70;;
39778;SDS011;25454;49.878;8.618;2023-05-10T13:05:05;3.47;;;0.70;;
39778;SDS011;25454;49.878;8.618;2023-05-10T13:10:06;3.20;;;1.23;;
39778;SDS011;25454;49.878;8.618;2023-05-10T13:15:07;4.07;;;0.97;;
39778;SDS011;25454;49.878;8.618;2023-05-10T13:20:08;1.67;;;0.90;;
39778;SDS011;25454;49.878;8.618;2023-05-10T13:25:09;2.60;;;0.93;;
39778;SDS011;25454;49.878;8.618;2023-05-10T13:30:11;3.97;;;1.00;;
39778;SDS011;25454;49.878;8.618;2023-05-10T13:35:12;5.33;;;1.43;;
39778;SDS011;25454;49.878;8.618;2023-05-10T13:40:12;2.77;;;1.00;;
39778;SDS011;25454;49.878;8.618;2023-05-10T13:45:14;3.47;;;1.20;;
39778;SDS011;25454;49.878;8.618;2023-05-10T13:50:16;2.87;;;0.70;;
39778;SDS011;25454;49.878;8.618;2023-05-10T13:55:16;1.17;;;0.57;;
39778;SDS011;25454;49.878;8.618;2023-05-10T14:00:17;3.63;;;0.97;;
39778;SDS011;25454;49.878;8.618;2023-05-10T14:05:18;1.63;;;0.90;;
39778;SDS011;25454;49.878;8.618;2023-05-10T14:10:18;2.50;;;1.00;;
39778;SDS011;25454;49.878;8.618;2023-05-10T14:15:19;2.17;;;1.27;;
39778;SDS011;25454;49.878;8.618;2023-05-10T14:20:20;3.93;;;1.10;;
39778;SDS011;25454;49.878;8.618;2023-05-10T14:25:21;3.43;;;0.97;;
39778;SDS011;25454;49.878;8.618;2023-05-10T14:30:21;6.10;;;1.10;;
39778;SDS011;25454;49.878;8.618;2023-05-10T14:35:22;4.63;;;1.47;;
39778;SDS011;25454;49.878;8.618;2023-05-10T14:40:23;3.40;;;0.83;;
39778;SDS011;25454;49.878;8.618;2023-05-10T14:45:23;1.93;;;0.87;;
39778;SDS011;25454;49.878;8.618;2023-05-10T14:50:24;2.97;;;1.20;;
39778;SDS011;25454;49.878;8.618;2023-05-10T14:55:24;3.30;;;1.30;;
39778;SDS011;25454;49.878;8.618;2023-05-10T15:00:25;2.70;;;0.90;;
39778;SDS011;25454;49.878;8.618;2023-05-10T15:05:25;5.23;;;1.10;;
39778;SDS011;25454;49.878;8.618;2023-05-10T15:10:26;2.73;;;0.70;;
39778;SDS011;25454;49.878;8.618;2023-05-10T15:15:27;6.97;;;1.00;;
39778;SDS011;25454;49.878;8.618;2023-05-10T15:20:27;2.70;;;1.07;;
39778;SDS011;25454;49.878;8.618;2023-05-10T15:25:28;1.67;;;0.83;;
39778;SDS011;25454;49.878;8.618;2023-05-10T15:30:28;3.97;;;0.90;;
39778;SDS011;25454;49.878;8.618;2023-05-10T15:35:29;2.27;;;1.20;;
39778;SDS011;25454;49.878;8.618;2023-05-10T15:40:30;2.87;;;0.80;;
39778;SDS011;25454;49.878;8.618;2023-05-10T15:45:30;2.77;;;1.17;;
39778;SDS011;25454;49.878;8.618;2023-05-10T15:50:31;3.03;;;0.97;;
39778;SDS011;25454;49.878;8.618;2023-05-10T15:55:32;2.47;;;1.07;;
39778;SDS011;25454;49.878;8.618;2023-05-10T16:00:34;2.13;;;0.93;;
39778;SDS011;25454;49.878;8.618;2023-05-10T16:05:34;2.87;;;0.80;;
39778;SDS011;25454;49.878;8.618;2023-05-10T16:10:35;3.43;;;0.73;;
39778;SDS011;25454;49.878;8.618;2023-05-10T16:15:35;1.07;;;0.53;;
39778;SDS011;25454;49.878;8.618;2023-05-10T16:20:36;5.93;;;0.80;;
39778;SDS011;25454;49.878;8.618;2023-05-10T16:25:37;1.53;;;0.53;;
39778;SDS011;25454;49.878;8.618;2023-05-10T16:30:37;2.17;;;1.07;;
39778;SDS011;25454;49.878;8.618;2023-05-10T16:35:38;3.33;;;0.83;;
39778;SDS011;25454;49.878;8.618;2023-05-10T16:40:39;1.60;;;1.07;;
39778;SDS011;25454;49.878;8.618;2023-05-10T16:45:40;3.13;;;0.80;;
39778;SDS011;25454;49.878;8.618;2023-05-10T16:50:44;1.60;;;0.73;;
39778;SDS011;25454;49.878;8.618;2023-05-10T16:55:44;1.67;;;0.73;;
39778;SDS011;25454;49.878;8.618;2023-05-10T17:00:45;2.70;;;0.90;;
39778;SDS011;25454;49.878;8.618;2023-05-10T17:05:45;2.40;;;1.20;;
39778;SDS011;25454;49.878;8.618;2023-05-10T17:10:46;4.00;;;1.20;;
39778;SDS011;25454;49.878;8.618;2023-05-10T17:15:47;2.90;;;1.27;;
39778;SDS011;25454;49.878;8.618;2023-05-10T17:20:47;3.83;;;1.00;;
39778;SDS011;25454;49.878;8.618;2023-05-10T17:25:49;3.87;;;1.10;;
39778;SDS011;25454;49.878;8.618;2023-05-10T17:30:56;3.20;;;0.90;;
39778;SDS011;25454;49.878;8.618;2023-05-10T17:35:57;2.03;;;0.93;;
39778;SDS011;25454;49.878;8.618;2023-05-10T17:41:00;2.40;;;0.90;;
39778;SDS011;25454;49.878;8.618;2023-05-10T17:46:01;2.57;;;1.93;;
39778;SDS011;25454;49.878;8.618;2023-05-10T17:51:02;2.37;;;1.17;;
39778;SDS011;25454;49.878;8.618;2023-05-10T17:56:03;3.37;;;1.20;;
39778;SDS011;25454;49.878;8.618;2023-05-10T18:01:07;2.67;;;1.50;;
39778;SDS011;25454;49.878;8.618;2023-05-10T18:06:08;3.40;;;1.00;;
39778;SDS011;25454;49.878;8.618;2023-05-10T18:11:08;2.40;;;0.83;;
39778;SDS011;25454;49.878;8.618;2023-05-10T18:16:09;1.90;;;1.07;;
39778;SDS011;25454;49.878;8.618;2023-05-10T18:21:12;2.73;;;1.43;;
39778;SDS011;25454;49.878;8.618;2023-05-10T18:26:12;3.43;;;1.67;;
39778;SDS011;25454;49.878;8.618;2023-05-10T18:31:13;4.03;;;1.67;;
39778;SDS011;25454;49.878;8.618;2023-05-10T18:36:14;2.63;;;1.77;;
39778;SDS011;25454;49.878;8.618;2023-05-10T18:41:14;1.87;;;1.17;;
39778;SDS011;25454;49.878;8.618;2023-05-10T18:46:15;2.33;;;0.97;;
39778;SDS011;25454;49.878;8.618;2023-05-10T18:51:16;1.27;;;1.17;;
39778;SDS011;25454;49.878;8.618;2023-05-10T18:56:17;1.53;;;1.10;;
39778;SDS011;25454;49.878;8.618;2023-05-10T19:01:17;2.40;;;1.23;;
39778;SDS011;25454;49.878;8.618;2023-05-10T19:06:18;1.93;;;1.00;;
39778;SDS011;25454;49.878;8.618;2023-05-10T19:11:19;1.10;;;0.73;;
39778;SDS011;25454;49.878;8.618;2023-05-10T19:16:20;2.27;;;1.00;;
39778;SDS011;25454;49.878;8.618;2023-05-10T19:21:21;1.63;;;1.30;;
39778;SDS011;25454;49.878;8.618;2023-05-10T19:26:22;2.03;;;0.93;;
39778;SDS011;25454;49.878;8.618;2023-05-10T19:31:22;2.50;;;1.40;;
39778;SDS011;25454;49.878;8.618;2023-05-10T19:36:23;1.33;;;1.07;;
39778;SDS011;25454;49.878;8.618;2023-05-10T19:41:24;3.07;;;1.10;;
39778;SDS011;25454;49.878;8.618;2023-05-10T19:46:24;3.10;;;1.10;;
39778;SDS011;25454;49.878;8.618;2023-05-10T19:51:26;4.57;;;1.60;;
39778;SDS011;25454;49.878;8.618;2023-05-10T19:56:26;2.27;;;0.93;;
39778;SDS011;25454;49.878;8.618;2023-05-10T20:01:28;2.90;;;1.20;;
39778;SDS011;25454;49.878;8.618;2023-05-10T20:06:29;4.80;;;1.60;;
39778;SDS011;25454;49.878;8.618;2023-05-10T20:11:30;9.30;;;1.30;;
39778;SDS011;25454;49.878;8.618;2023-05-10T20:16:31;5.03;;;1.13;;
39778;SDS011;25454;49.878;8.618;2023-05-10T20:21:31;1.77;;;0.93;;
39778;SDS011;25454;49.878;8.618;2023-05-10T20:26:32;2.67;;;1.10;;
39778;SDS011;25454;49.878;8.618;2023-05-10T20:31:33;2.37;;;1.07;;
39778;SDS011;25454;49.878;8.618;2023-05-10T20:36:33;3.73;;;0.90;;
39778;SDS011;25454;49.878;8.618;2023-05-10T20:41:34;6.27;;;0.80;;
39778;SDS011;25454;49.878;8.618;2023-05-10T20:46:35;0.83;;;0.60;;
39778;SDS011;25454;49.878;8.618;2023-05-10T20:51:35;3.33;;;1.43;;
39778;SDS011;25454;49.878;8.618;2023-05-10T20:56:36;2.87;;;0.80;;
39778;SDS011;25454;49.878;8.618;2023-05-10T21:01:36;2.03;;;1.30;;
39778;SDS011;25454;49.878;8.618;2023-05-10T21:06:37;2.87;;;1.07;;
39778;SDS011;25454;49.878;8.618;2023-05-10T21:11:37;1.90;;;0.70;;
39778;SDS011;25454;49.878;8.618;2023-05-10T21:16:38;2.93;;;0.87;;
39778;SDS011;25454;49.878;8.618;2023-05-10T21:21:39;0.97;;;0.70;;
39778;SDS011;25454;49.878;8.618;2023-05-10T21:26:39;3.30;;;1.17;;
39778;SDS011;25454;49.878;8.618;2023-05-10T21:31:40;2.10;;;1.33;;
39778;SDS011;25454;49.878;8.618;2023-05-10T21:36:41;1.83;;;1.20;;
39778;SDS011;25454;49.878;8.618;2023-05-10T21:41:41;2.27;;;1.40;;
39778;SDS011;25454;49.878;8.618;2023-05-10T21:46:42;3.10;;;1.20;;
39778;SDS011;25454;49.878;8.618;2023-05-10T21:51:43;3.73;;;1.10;;
39778;SDS011;25454;49.878;8.618;2023-05-10T21:56:43;6.63;;;1.20;;
39778;SDS011;25454;49.878;8.618;2023-05-10T22:01:44;3.63;;;1.03;;
39778;SDS011;25454;49.878;8.618;2023-05-10T22:06:45;3.90;;;1.10;;
39778;SDS011;25454;49.878;8.618;2023-05-10T22:11:45;4.83;;;1.30;;
39778;SDS011;25454;49.878;8.618;2023-05-10T22:16:47;3.40;;;1.10;;
39778;SDS011;25454;49.878;8.618;2023-05-10T22:21:48;1.67;;;0.90;;
39778;SDS011;25454;49.878;8.618;2023-05-10T22:26:48;2.37;;;1.20;;
39778;SDS011;25454;49.878;8.618;2023-05-10T22:31:49;4.97;;;1.10;;
39778;SDS011;25454;49.878;8.618;2023-05-10T22:36:49;3.83;;;1.03;;
39778;SDS011;25454;49.878;8.618;2023-05-10T22:41:50;2.10;;;1.10;;
39778;SDS011;25454;49.878;8.618;2023-05-10T22:46:54;2.17;;;1.13;;
39778;SDS011;25454;49.878;8.618;2023-05-10T22:51:54;1.50;;;0.80;;
39778;SDS011;25454;49.878;8.618;2023-05-10T22:56:55;1.97;;;1.37;;
39778;SDS011;25454;49.878;8.618;2023-05-10T23:01:55;2.13;;;0.80;;
39778;SDS011;25454;49.878;8.618;2023-05-10T23:06:56;1.40;;;0.90;;
39778;SDS011;25454;49.878;8.618;2023-05-10T23:11:57;2.03;;;1.10;;
39778;SDS011;25454;49.878;8.618;2023-05-10T23:16:57;1.67;;;0.80;;
39778;SDS011;25454;49.878;8.618;2023-05-10T23:21:58;2.23;;;1.20;;
39778;SDS011;25454;49.878;8.618;2023-05-10T23:26:58;1.57;;;1.07;;
39778;SDS011;25454;49.878;8.618;2023-05-10T23:31:59;1.07;;;0.83;;
39778;SDS011;25454;49.878;8.618;2023-05-10T23:37:00;2.00;;;0.80;;
39778;SDS011;25454;49.878;8.618;2023-05-10T23:42:01;2.60;;;1.00;;
39778;SDS011;25454;49.878;8.618;2023-05-10T23:47:02;1.10;;;1.00;;
39778;SDS011;25454;49.878;8.618;2023-05-10T23:52:03;0.70;;;0.70;;
39778;SDS011;25454;49.878;8.618;2023-05-10T23:57:03;3.17;;;1.17;;
